Time,TemperatureF,DewpointF,PressureIn,WindDirection,WindDirectionDegrees,WindSpeedMPH,WindSpeedGustMPH,Humidity,HourlyPrecipIn,Conditions,Clouds,dailyrainin,SoftwareType,DateUTC
2013-02-06 00:00:00,38.8,37.0,30.14,East,90,0.0,1.0,93,0.00,,---,0.00,VWS V14.01,2013-02-06 08:00:00,
2013-02-06 00:10:00,38.4,36.6,30.14,East,90,0.0,0.0,93,0.00,,---,0.00,VWS V14.01,2013-02-06 08:10:00,
2013-02-06 00:20:00,38.2,36.4,30.14,East,90,0.0,0.0,93,0.00,,---,0.00,VWS V14.01,2013-02-06 08:20:00,
2013-02-06 00:30:00,38.3,36.5,30.14,East,90,0.0,1.0,93,0.00,,---,0.00,VWS V14.01,2013-02-06 08:30:00,
2013-02-06 00:40:00,38.1,36.3,30.14,East,90,0.0,0.0,93,0.00,,---,0.00,VWS V14.01,2013-02-06 08:40:00,
2013-02-06 00:50:00,37.7,35.9,30.14,East,90,0.0,0.0,93,0.00,,---,0.00,VWS V14.01,2013-02-06 08:50:00,
2013-02-06 01:00:00,37.8,36.2,30.13,East,90,0.0,0.0,94,0.00,,---,0.00,VWS V14.01,2013-02-06 09:00:00,
2013-02-06 01:10:00,37.8,36.2,30.13,East,90,0.0,0.0,94,0.00,,---,0.00,VWS V14.01,2013-02-06 09:10:00,
2013-02-06 01:20:00,38.0,36.4,30.13,East,90,0.0,0.0,94,0.00,,---,0.00,VWS V14.01,2013-02-06 09:20:00,
2013-02-06 01:30:00,38.1,36.5,30.13,East,90,0.0,0.0,94,0.00,,---,0.00,VWS V14.01,2013-02-06 09:30:00,
2013-02-06 01:40:00,37.6,36.0,30.13,East,90,0.0,1.0,94,0.00,,---,0.00,VWS V14.01,2013-02-06 09:40:00,
2013-02-06 01:50:00,37.7,36.1,30.13,East,90,0.0,1.0,94,0.00,,---,0.00,VWS V14.01,2013-02-06 09:50:00,
2013-02-06 02:00:00,38.1,36.5,30.13,East,90,0.0,0.0,94,0.00,,---,0.00,VWS V14.01,2013-02-06 10:00:00,
2013-02-06 02:10:00,38.3,36.7,30.14,East,90,0.0,1.0,94,0.00,,---,0.00,VWS V14.01,2013-02-06 10:10:00,
2013-02-06 02:20:00,37.0,35.2,30.14,East,90,0.0,1.0,93,0.00,,---,0.00,VWS V14.01,2013-02-06 10:20:00,
2013-02-06 02:30:00,36.6,35.0,30.14,East,90,0.0,0.0,94,0.00,,---,0.00,VWS V14.01,2013-02-06 10:30:00,
2013-02-06 02:40:00,36.3,34.7,30.14,East,90,0.0,0.0,94,0.00,,---,0.00,VWS V14.01,2013-02-06 10:40:00,
2013-02-06 02:50:00,36.2,34.6,30.13,East,90,0.0,1.0,94,0.00,,---,0.00,VWS V14.01,2013-02-06 10:50:00,
2013-02-06 03:00:00,36.3,34.7,30.13,East,90,0.0,0.0,94,0.00,,---,0.00,VWS V14.01,2013-02-06 11:00:00,
2013-02-06 03:10:00,36.3,34.7,30.13,East,90,0.0,0.0,94,0.00,,---,0.00,VWS V14.01,2013-02-06 11:10:00,
2013-02-06 03:20:00,35.9,34.3,30.13,East,90,0.0,0.0,94,0.00,,---,0.00,VWS V14.01,2013-02-06 11:20:00,
2013-02-06 03:30:00,35.6,34.0,30.14,East,90,0.0,0.0,94,0.00,,---,0.00,VWS V14.01,2013-02-06 11:30:00,
2013-02-06 03:40:00,35.4,33.8,30.14,East,90,0.0,0.0,94,0.00,,---,0.00,VWS V14.01,2013-02-06 11:40:00,
2013-02-06 03:50:00,35.3,33.8,30.13,East,90,0.0,0.0,94,0.00,,---,0.00,VWS V14.01,2013-02-06 11:50:00,
2013-02-06 04:00:00,35.3,33.8,30.14,East,90,0.0,0.0,94,0.00,,---,0.00,VWS V14.01,2013-02-06 12:00:00,
2013-02-06 04:10:00,35.1,33.5,30.14,East,90,0.0,0.0,94,0.00,,---,0.00,VWS V14.01,2013-02-06 12:10:00,
2013-02-06 04:20:00,34.8,33.2,30.14,East,90,0.0,0.0,94,0.00,,---,0.00,VWS V14.01,2013-02-06 12:20:00,
2013-02-06 04:30:00,35.0,33.5,30.14,East,90,0.0,0.0,94,0.00,,---,0.00,VWS V14.01,2013-02-06 12:30:00,
2013-02-06 04:40:00,35.1,33.5,30.14,East,90,0.0,0.0,94,0.00,,---,0.00,VWS V14.01,2013-02-06 12:40:00,
2013-02-06 04:50:00,34.7,33.2,30.15,East,90,0.0,0.0,94,0.00,,---,0.00,VWS V14.01,2013-02-06 12:50:00,
2013-02-06 05:00:00,34.9,33.3,30.15,East,90,0.0,0.0,94,0.00,,---,0.00,VWS V14.01,2013-02-06 13:00:00,
2013-02-06 05:10:00,35.2,33.7,30.14,East,90,0.0,1.0,94,0.00,,---,0.00,VWS V14.01,2013-02-06 13:10:00,
2013-02-06 05:20:00,35.6,34.3,30.14,East,90,0.0,0.0,95,0.00,,---,0.00,VWS V14.01,2013-02-06 13:20:00,
2013-02-06 05:30:00,36.0,34.7,30.14,East,90,0.0,0.0,95,0.00,,---,0.00,VWS V14.01,2013-02-06 13:30:00,
2013-02-06 05:40:00,36.3,35.0,30.14,East,90,0.0,0.0,95,0.00,,---,0.00,VWS V14.01,2013-02-06 13:40:00,
2013-02-06 05:50:00,36.3,35.0,30.14,East,90,0.0,1.0,95,0.00,,---,0.00,VWS V14.01,2013-02-06 13:50:00,
2013-02-06 06:00:00,36.2,34.9,30.14,East,90,0.0,0.0,95,0.00,,---,0.00,VWS V14.01,2013-02-06 14:00:00,
2013-02-06 06:10:00,35.8,34.2,30.15,East,90,0.0,1.0,94,0.00,,---,0.00,VWS V14.01,2013-02-06 14:10:00,
2013-02-06 06:20:00,35.3,33.8,30.15,East,90,0.0,0.0,94,0.00,,---,0.00,VWS V14.01,2013-02-06 14:20:00,
2013-02-06 06:30:00,35.2,33.7,30.16,East,90,0.0,0.0,94,0.00,,---,0.00,VWS V14.01,2013-02-06 14:30:00,
2013-02-06 06:40:00,35.0,33.5,30.16,East,90,0.0,0.0,94,0.00,,---,0.00,VWS V14.01,2013-02-06 14:40:00,
2013-02-06 06:50:00,34.7,33.2,30.17,East,90,0.0,0.0,94,0.00,,---,0.00,VWS V14.01,2013-02-06 14:50:00,
2013-02-06 07:00:00,34.4,32.9,30.16,East,90,0.0,0.0,94,0.00,,---,0.00,VWS V14.01,2013-02-06 15:00:00,
2013-02-06 07:10:00,34.4,32.9,30.17,East,90,0.0,1.0,94,0.00,,---,0.00,VWS V14.01,2013-02-06 15:10:00,
2013-02-06 07:20:00,34.4,32.9,30.17,East,90,0.0,0.0,94,0.00,,---,0.00,VWS V14.01,2013-02-06 15:20:00,
2013-02-06 07:30:00,34.4,32.9,30.17,East,90,0.0,0.0,94,0.00,,---,0.00,VWS V14.01,2013-02-06 15:30:00,
2013-02-06 07:40:00,35.1,33.8,30.17,East,90,0.0,1.0,95,0.00,,---,0.00,VWS V14.01,2013-02-06 15:40:00,
2013-02-06 07:50:00,36.3,35.0,30.17,East,90,0.0,0.0,95,0.00,,---,0.00,VWS V14.01,2013-02-06 15:50:00,
2013-02-06 08:00:00,37.8,36.5,30.18,East,90,0.0,0.0,95,0.00,,---,0.00,VWS V14.01,2013-02-06 16:00:00,
2013-02-06 08:10:00,39.3,38.0,30.18,East,90,0.0,1.0,95,0.00,,---,0.00,VWS V14.01,2013-02-06 16:10:00,
2013-02-06 08:20:00,40.1,39.0,30.18,ESE,112,0.0,3.0,96,0.00,,---,0.00,VWS V14.01,2013-02-06 16:20:00,
2013-02-06 08:30:00,41.1,39.8,30.18,East,90,1.0,3.0,95,0.00,,---,0.00,VWS V14.01,2013-02-06 16:30:00,
2013-02-06 08:40:00,41.6,40.3,30.19,East,90,1.0,5.0,95,0.00,,---,0.00,VWS V14.01,2013-02-06 16:40:00,
2013-02-06 08:50:00,42.5,41.2,30.18,East,90,0.0,4.0,95,0.00,,---,0.00,VWS V14.01,2013-02-06 16:50:00,
2013-02-06 09:00:00,43.2,41.6,30.18,East,90,1.0,4.0,94,0.00,,---,0.00,VWS V14.01,2013-02-06 17:00:00,
2013-02-06 09:10:00,43.5,41.6,30.18,East,90,1.0,5.0,93,0.00,,---,0.00,VWS V14.01,2013-02-06 17:10:00,
2013-02-06 09:20:00,43.9,41.7,30.18,East,90,1.0,5.0,92,0.00,,---,0.00,VWS V14.01,2013-02-06 17:20:00,
2013-02-06 09:30:00,45.1,41.8,30.18,East,90,2.0,6.0,88,0.00,,---,0.00,VWS V14.01,2013-02-06 17:30:00,
2013-02-06 09:40:00,46.5,42.2,30.18,ESE,112,2.0,6.0,85,0.00,,---,0.00,VWS V14.01,2013-02-06 17:40:00,
2013-02-06 09:50:00,47.8,43.2,30.18,ESE,112,1.0,4.0,84,0.00,,---,0.00,VWS V14.01,2013-02-06 17:50:00,
2013-02-06 10:00:00,48.9,43.3,30.18,East,90,2.0,5.0,81,0.00,,---,0.00,VWS V14.01,2013-02-06 18:00:00,
2013-02-06 10:10:00,49.6,43.0,30.18,SE,135,1.0,6.0,78,0.00,,---,0.00,VWS V14.01,2013-02-06 18:10:00,
2013-02-06 10:20:00,50.0,43.1,30.18,SE,135,1.0,5.0,77,0.00,,---,0.00,VWS V14.01,2013-02-06 18:20:00,
2013-02-06 10:30:00,51.0,43.7,30.17,ESE,112,1.0,6.0,76,0.00,,---,0.00,VWS V14.01,2013-02-06 18:30:00,
2013-02-06 10:40:00,52.5,44.1,30.17,East,90,1.0,3.0,73,0.00,,---,0.00,VWS V14.01,2013-02-06 18:40:00,
2013-02-06 10:50:00,53.5,44.0,30.17,East,90,1.0,4.0,70,0.00,,---,0.00,VWS V14.01,2013-02-06 18:50:00,
2013-02-06 11:00:00,53.9,44.0,30.17,ENE,68,1.0,4.0,69,0.00,,---,0.00,VWS V14.01,2013-02-06 19:00:00,
2013-02-06 11:10:00,54.9,44.2,30.16,ESE,112,1.0,3.0,67,0.00,,---,0.00,VWS V14.01,2013-02-06 19:10:00,
2013-02-06 11:20:00,55.7,43.7,30.16,SW,225,0.0,2.0,64,0.00,,---,0.00,VWS V14.01,2013-02-06 19:20:00,
2013-02-06 11:30:00,55.7,42.9,30.16,West,270,0.0,2.0,62,0.00,,---,0.00,VWS V14.01,2013-02-06 19:30:00,
2013-02-06 11:40:00,56.8,43.1,30.15,NNE,22,1.0,6.0,60,0.00,,---,0.00,VWS V14.01,2013-02-06 19:40:00,
2013-02-06 11:50:00,56.3,41.3,30.16,NW,315,1.0,5.0,57,0.00,,---,0.00,VWS V14.01,2013-02-06 19:50:00,
2013-02-06 12:00:00,56.5,41.9,30.14,NNW,338,1.0,5.0,58,0.00,,---,0.00,VWS V14.01,2013-02-06 20:00:00,
2013-02-06 12:10:00,57.3,42.2,30.14,NNW,338,0.0,3.0,57,0.00,,---,0.00,VWS V14.01,2013-02-06 20:10:00,
2013-02-06 12:20:00,57.5,41.5,30.14,SW,225,1.0,4.0,55,0.00,,---,0.00,VWS V14.01,2013-02-06 20:20:00,
2013-02-06 12:30:00,57.3,40.8,30.14,NW,315,1.0,3.0,54,0.00,,---,0.00,VWS V14.01,2013-02-06 20:30:00,
2013-02-06 12:40:00,57.8,40.8,30.13,NNW,338,1.0,6.0,53,0.00,,---,0.00,VWS V14.01,2013-02-06 20:40:00,
2013-02-06 12:50:00,58.2,41.2,30.13,West,270,1.0,4.0,53,0.00,,---,0.00,VWS V14.01,2013-02-06 20:50:00,
2013-02-06 13:00:00,58.7,41.6,30.12,NE,45,1.0,4.0,53,0.00,,---,0.00,VWS V14.01,2013-02-06 21:00:00,
2013-02-06 13:10:00,58.5,41.9,30.12,NW,315,1.0,9.0,54,0.00,,---,0.00,VWS V14.01,2013-02-06 21:10:00,
2013-02-06 13:20:00,58.1,42.0,30.11,SE,135,0.0,4.0,55,0.00,,---,0.00,VWS V14.01,2013-02-06 21:20:00,
2013-02-06 13:30:00,57.6,42.0,30.11,SE,135,1.0,3.0,56,0.00,,---,0.00,VWS V14.01,2013-02-06 21:30:00,
2013-02-06 13:40:00,57.9,42.3,30.10,ESE,112,0.0,1.0,56,0.00,,---,0.00,VWS V14.01,2013-02-06 21:40:00,
2013-02-06 13:50:00,58.3,42.7,30.10,NNE,22,1.0,2.0,56,0.00,,---,0.00,VWS V14.01,2013-02-06 21:50:00,
2013-02-06 14:00:00,59.0,43.3,30.09,East,90,1.0,3.0,56,0.00,,---,0.00,VWS V14.01,2013-02-06 22:00:00,
2013-02-06 14:10:00,59.0,43.3,30.09,East,90,0.0,2.0,56,0.00,,---,0.00,VWS V14.01,2013-02-06 22:10:00,
2013-02-06 14:20:00,59.7,44.0,30.09,SSW,202,0.0,3.0,56,0.00,,---,0.00,VWS V14.01,2013-02-06 22:20:00,
2013-02-06 14:30:00,59.3,43.6,30.09,West,270,1.0,4.0,56,0.00,,---,0.00,VWS V14.01,2013-02-06 22:30:00,
2013-02-06 14:40:00,59.2,43.5,30.09,WSW,248,1.0,6.0,56,0.00,,---,0.00,VWS V14.01,2013-02-06 22:40:00,
2013-02-06 14:50:00,59.0,43.3,30.09,SSW,202,2.0,5.0,56,0.00,,---,0.00,VWS V14.01,2013-02-06 22:50:00,
2013-02-06 15:00:00,58.7,43.1,30.09,West,270,1.0,7.0,56,0.00,,---,0.00,VWS V14.01,2013-02-06 23:00:00,
2013-02-06 15:10:00,58.5,43.3,30.09,WSW,248,1.0,6.0,57,0.00,,---,0.00,VWS V14.01,2013-02-06 23:10:00,
2013-02-06 15:20:00,58.1,42.5,30.09,South,180,1.0,4.0,56,0.00,,---,0.00,VWS V14.01,2013-02-06 23:20:00,
2013-02-06 15:30:00,57.6,42.0,30.10,SSW,202,2.0,10.0,56,0.00,,---,0.00,VWS V14.01,2013-02-06 23:30:00,
2013-02-06 15:40:00,57.1,41.1,30.10,WSW,248,2.0,7.0,55,0.00,,---,0.00,VWS V14.01,2013-02-06 23:40:00,
2013-02-06 15:50:00,57.0,40.5,30.10,SSW,202,1.0,7.0,54,0.00,,---,0.00,VWS V14.01,2013-02-06 23:50:00,
2013-02-06 16:00:00,56.6,41.1,30.10,WSW,248,1.0,5.0,56,0.00,,---,0.00,VWS V14.01,2013-02-07 00:00:00,
2013-02-06 16:10:00,56.2,41.6,30.10,West,270,1.0,5.0,58,0.00,,---,0.00,VWS V14.01,2013-02-07 00:10:00,
2013-02-06 16:20:00,55.8,42.1,30.10,SW,225,1.0,5.0,60,0.00,,---,0.00,VWS V14.01,2013-02-07 00:20:00,
2013-02-06 16:30:00,55.1,42.3,30.10,WSW,248,1.0,4.0,62,0.00,,---,0.00,VWS V14.01,2013-02-07 00:30:00,
2013-02-06 16:40:00,54.4,42.5,30.11,WSW,248,1.0,5.0,64,0.00,,---,0.00,VWS V14.01,2013-02-07 00:40:00,
2013-02-06 16:50:00,53.9,42.4,30.11,WNW,292,0.0,2.0,65,0.00,,---,0.00,VWS V14.01,2013-02-07 00:50:00,
2013-02-06 17:00:00,53.3,42.2,30.11,NNW,338,0.0,1.0,66,0.00,,---,0.00,VWS V14.01,2013-02-07 01:00:00,
2013-02-06 17:10:00,52.9,42.3,30.11,ENE,68,0.0,3.0,67,0.00,,---,0.00,VWS V14.01,2013-02-07 01:10:00,
2013-02-06 17:20:00,52.7,42.1,30.11,NNE,22,1.0,5.0,67,0.00,,---,0.00,VWS V14.01,2013-02-07 01:20:00,
2013-02-06 17:30:00,52.5,41.9,30.11,ENE,68,0.0,4.0,67,0.00,,---,0.00,VWS V14.01,2013-02-07 01:30:00,
2013-02-06 17:40:00,51.9,42.1,30.11,NE,45,0.0,1.0,69,0.00,,---,0.00,VWS V14.01,2013-02-07 01:40:00,
2013-02-06 17:50:00,50.4,41.7,30.11,SE,135,0.0,3.0,72,0.00,,---,0.00,VWS V14.01,2013-02-07 01:50:00,
2013-02-06 18:00:00,49.5,41.6,30.12,SE,135,0.0,1.0,74,0.00,,---,0.00,VWS V14.01,2013-02-07 02:00:00,
2013-02-06 18:10:00,48.7,41.1,30.12,SE,135,0.0,1.0,75,0.00,,---,0.00,VWS V14.01,2013-02-07 02:10:00,
2013-02-06 18:20:00,48.0,41.2,30.12,SE,135,0.0,1.0,77,0.00,,---,0.00,VWS V14.01,2013-02-07 02:20:00,
2013-02-06 18:30:00,47.4,41.2,30.12,SE,135,0.0,1.0,79,0.00,,---,0.00,VWS V14.01,2013-02-07 02:30:00,
2013-02-06 18:40:00,47.2,41.4,30.12,SE,135,0.0,1.0,80,0.00,,---,0.00,VWS V14.01,2013-02-07 02:40:00,
2013-02-06 18:50:00,46.9,41.4,30.13,SE,135,0.0,0.0,81,0.00,,---,0.00,VWS V14.01,2013-02-07 02:50:00,
2013-02-06 19:00:00,46.5,41.3,30.13,SE,135,0.0,0.0,82,0.00,,---,0.00,VWS V14.01,2013-02-07 03:00:00,
2013-02-06 19:10:00,46.0,41.1,30.13,SE,135,0.0,0.0,83,0.00,,---,0.00,VWS V14.01,2013-02-07 03:10:00,
2013-02-06 19:20:00,45.4,40.9,30.13,SE,135,0.0,1.0,84,0.00,,---,0.00,VWS V14.01,2013-02-07 03:20:00,
2013-02-06 19:30:00,44.9,40.7,30.13,SE,135,0.0,1.0,85,0.00,,---,0.00,VWS V14.01,2013-02-07 03:30:00,
2013-02-06 19:40:00,44.2,40.3,30.14,SE,135,0.0,1.0,86,0.00,,---,0.00,VWS V14.01,2013-02-07 03:40:00,
2013-02-06 19:50:00,44.3,40.7,30.14,SE,135,0.0,4.0,87,0.00,,---,0.00,VWS V14.01,2013-02-07 03:50:00,
2013-02-06 20:00:00,44.6,40.7,30.14,SE,135,0.0,0.0,86,0.00,,---,0.00,VWS V14.01,2013-02-07 04:00:00,
2013-02-06 20:10:00,44.3,40.4,30.14,WNW,292,0.0,1.0,86,0.00,,---,0.00,VWS V14.01,2013-02-07 04:10:00,
2013-02-06 20:20:00,43.8,39.9,30.15,WNW,292,0.0,1.0,86,0.00,,---,0.00,VWS V14.01,2013-02-07 04:20:00,
2013-02-06 20:30:00,43.4,39.8,30.15,WNW,292,0.0,0.0,87,0.00,,---,0.00,VWS V14.01,2013-02-07 04:30:00,
2013-02-06 20:40:00,42.8,39.2,30.15,WNW,292,0.0,0.0,87,0.00,,---,0.00,VWS V14.01,2013-02-07 04:40:00,
2013-02-06 20:50:00,42.2,38.6,30.16,WNW,292,0.0,0.0,87,0.00,,---,0.00,VWS V14.01,2013-02-07 04:50:00,
2013-02-06 21:00:00,41.5,38.2,30.16,WNW,292,0.0,0.0,88,0.00,,---,0.00,VWS V14.01,2013-02-07 05:00:00,
2013-02-06 21:10:00,41.1,38.1,30.17,WNW,292,0.0,1.0,89,0.00,,---,0.00,VWS V14.01,2013-02-07 05:10:00,
2013-02-06 21:20:00,40.7,37.7,30.16,SSE,158,0.0,4.0,89,0.00,,---,0.00,VWS V14.01,2013-02-07 05:20:00,
2013-02-06 21:30:00,40.4,37.4,30.17,SE,135,0.0,2.0,89,0.00,,---,0.00,VWS V14.01,2013-02-07 05:30:00,
2013-02-06 21:40:00,40.2,37.5,30.16,ESE,112,0.0,2.0,90,0.00,,---,0.00,VWS V14.01,2013-02-07 05:40:00,
2013-02-06 21:50:00,39.8,36.8,30.16,ESE,112,0.0,1.0,89,0.00,,---,0.00,VWS V14.01,2013-02-07 05:50:00,
2013-02-06 22:00:00,39.4,36.7,30.16,ESE,112,0.0,1.0,90,0.00,,---,0.00,VWS V14.01,2013-02-07 06:00:00,
2013-02-06 22:10:00,39.1,36.4,30.16,ESE,112,0.0,1.0,90,0.00,,---,0.00,VWS V14.01,2013-02-07 06:10:00,
2013-02-06 22:20:00,38.8,36.1,30.16,ESE,112,0.0,1.0,90,0.00,,---,0.00,VWS V14.01,2013-02-07 06:20:00,
2013-02-06 22:30:00,38.5,35.8,30.16,ESE,112,0.0,1.0,90,0.00,,---,0.00,VWS V14.01,2013-02-07 06:30:00,
2013-02-06 22:40:00,38.2,35.5,30.16,ESE,112,0.0,1.0,90,0.00,,---,0.00,VWS V14.01,2013-02-07 06:40:00,
2013-02-06 22:50:00,38.2,35.8,30.16,ESE,112,0.0,2.0,91,0.00,,---,0.00,VWS V14.01,2013-02-07 06:50:00,
2013-02-06 23:00:00,38.7,36.6,30.16,ESE,112,0.0,2.0,92,0.00,,---,0.00,VWS V14.01,2013-02-07 07:00:00,
2013-02-06 23:10:00,38.5,36.1,30.16,NNW,338,0.0,1.0,91,0.00,,---,0.00,VWS V14.01,2013-02-07 07:10:00,
2013-02-06 23:20:00,38.3,36.2,30.16,NNW,338,0.0,1.0,92,0.00,,---,0.00,VWS V14.01,2013-02-07 07:20:00,
2013-02-06 23:30:00,38.2,36.1,30.16,NNW,338,0.0,0.0,92,0.00,,---,0.00,VWS V14.01,2013-02-07 07:30:00,
2013-02-06 23:40:00,37.9,35.8,30.17,NNW,338,0.0,0.0,92,0.00,,---,0.00,VWS V14.01,2013-02-07 07:40:00,
2013-02-06 23:50:00,37.7,35.6,30.17,NNW,338,0.0,0.0,92,0.00,,---,0.00,VWS V14.01,2013-02-07 07:50:00,